Time;durP1;ratioP1;P1;durP2;ratioP2;P2;SDS_P1;SDS_P2;PMS_P1;PMS_P2;Temp;Humidity;BMP_temperature;BMP_pressure;BME280_temperature;BME280_humidity;BME280_pressure;Samples;Min_cycle;Max_cycle;Signal;HPM_P1;HPM_P2
2023/06/08 00:00:27;;;;;;;6.03;5.53;;;19.90;99.90;;;;;;6324305;28;20238;-61
2023/06/08 00:03:33;;;;;;;7.13;6.23;;;19.90;99.90;;;;;;6324814;28;20303;-61
2023/06/08 00:06:37;;;;;;;5.80;4.80;;;19.80;99.90;;;;;;6324359;28;20229;-61
2023/06/08 00:09:41;;;;;;;6.10;5.60;;;19.70;99.90;;;;;;6324316;28;20230;-62
2023/06/08 00:12:44;;;;;;;8.63;5.67;;;19.60;99.90;;;;;;6324003;28;20222;-62
2023/06/08 00:15:49;;;;;;;5.87;5.37;;;19.60;99.90;;;;;;6324373;28;20379;-62
2023/06/08 00:18:54;;;;;;;6.67;6.07;;;19.50;99.90;;;;;;6324241;28;20657;-62
2023/06/08 00:21:58;;;;;;;6.93;6.40;;;19.50;99.90;;;;;;6324279;28;20237;-62
2023/06/08 00:25:02;;;;;;;6.40;5.90;;;19.50;99.90;;;;;;6323979;28;20649;-62
2023/06/08 00:28:05;;;;;;;6.63;6.13;;;19.50;99.90;;;;;;6328224;28;20561;-62
2023/06/08 00:31:09;;;;;;;6.70;6.20;;;19.40;99.90;;;;;;6329480;28;20649;-62
2023/06/08 00:34:13;;;;;;;8.30;6.77;;;19.50;99.90;;;;;;6328881;28;20222;-62
2023/06/08 00:37:16;;;;;;;5.90;5.30;;;19.50;99.90;;;;;;6329281;28;20314;-62
2023/06/08 00:40:19;;;;;;;5.70;5.30;;;19.50;99.90;;;;;;6328745;28;20230;-62
2023/06/08 00:43:22;;;;;;;6.10;5.60;;;19.60;99.90;;;;;;6328790;28;20531;-62
2023/06/08 00:46:30;;;;;;;7.10;6.60;;;19.60;99.90;;;;;;6328676;28;20244;-62
2023/06/08 00:49:34;;;;;;;6.73;6.13;;;19.40;99.90;;;;;;6328402;28;20749;-62
2023/06/08 00:52:39;;;;;;;5.40;5.00;;;19.40;99.90;;;;;;6329010;28;20203;-62
2023/06/08 00:55:43;;;;;;;6.53;5.93;;;19.30;99.90;;;;;;6328629;28;20309;-62
2023/06/08 00:58:47;;;;;;;5.47;5.07;;;19.20;99.90;;;;;;6328190;28;20554;-62
2023/06/08 01:01:52;;;;;;;6.93;5.20;;;19.20;99.90;;;;;;6328403;28;20618;-62
2023/06/08 01:04:56;;;;;;;5.83;5.33;;;19.20;99.90;;;;;;6328589;28;20226;-62
2023/06/08 01:08:10;;;;;;;6.20;5.60;;;19.10;99.90;;;;;;6328576;28;20705;-62
2023/06/08 01:11:19;;;;;;;5.20;4.80;;;19.20;99.90;;;;;;6328154;28;20241;-62
2023/06/08 01:14:36;;;;;;;6.10;5.60;;;19.30;99.90;;;;;;6328635;28;20232;-62
2023/06/08 01:17:44;;;;;;;5.10;4.70;;;19.30;99.90;;;;;;6328019;28;20245;-62
2023/06/08 01:21:07;;;;;;;6.20;5.70;;;19.30;99.90;;;;;;6328312;28;20241;-62
2023/06/08 01:24:16;;;;;;;5.43;5.03;;;19.30;99.90;;;;;;6318817;28;20242;-62
2023/06/08 01:27:20;;;;;;;6.23;5.63;;;19.20;99.90;;;;;;6327984;28;20335;-62
2023/06/08 01:30:25;;;;;;;5.93;5.33;;;19.20;99.90;;;;;;6327885;28;20230;-62
2023/06/08 01:33:30;;;;;;;5.67;5.27;;;19.10;99.90;;;;;;6328168;28;20226;-62
2023/06/08 01:36:45;;;;;;;5.70;5.23;;;19.00;99.90;;;;;;6327784;28;20226;-62
2023/06/08 01:39:57;;;;;;;6.43;5.93;;;19.00;99.90;;;;;;6328093;28;20292;-62
2023/06/08 01:43:01;;;;;;;6.10;5.50;;;18.80;99.90;;;;;;6327550;28;20238;-62
2023/06/08 01:46:07;;;;;;;5.83;5.43;;;18.80;99.90;;;;;;6327715;28;20709;-62
2023/06/08 01:49:11;;;;;;;6.20;5.60;;;18.60;99.90;;;;;;6327371;28;20704;-62
2023/06/08 01:52:14;;;;;;;6.00;5.50;;;18.60;99.90;;;;;;6327547;28;20472;-62
2023/06/08 01:55:20;;;;;;;6.43;5.93;;;18.50;99.90;;;;;;6327201;28;20222;-62
2023/06/08 01:58:23;;;;;;;6.60;6.00;;;18.40;99.90;;;;;;6327481;28;20233;-62
2023/06/08 02:01:27;;;;;;;6.13;5.50;;;18.30;99.90;;;;;;6327010;28;20218;-62
2023/06/08 02:04:30;;;;;;;5.43;5.03;;;18.30;99.90;;;;;;6327278;28;20317;-62
2023/06/08 02:07:36;;;;;;;7.50;6.90;;;18.30;99.90;;;;;;6327485;28;20214;-62
2023/06/08 02:10:41;;;;;;;6.00;5.60;;;18.20;99.90;;;;;;6326940;28;20530;-62
2023/06/08 02:13:45;;;;;;;5.97;5.40;;;18.30;99.90;;;;;;6327184;28;20468;-62
2023/06/08 02:16:48;;;;;;;7.10;5.17;;;18.30;99.90;;;;;;6327504;28;20232;-61
2023/06/08 02:19:51;;;;;;;5.57;5.17;;;18.30;99.90;;;;;;6327138;28;20245;-61
2023/06/08 02:22:55;;;;;;;4.50;4.20;;;18.30;99.90;;;;;;6326898;28;20543;-61
2023/06/08 02:26:00;;;;;;;5.60;5.10;;;18.30;99.90;;;;;;6317661;28;20244;-61
2023/06/08 02:29:03;;;;;;;5.10;4.57;;;18.20;99.90;;;;;;6326268;28;20491;-61
2023/06/08 02:32:07;;;;;;;5.40;4.90;;;18.10;99.90;;;;;;6326606;28;20472;-61
2023/06/08 02:35:11;;;;;;;6.30;5.27;;;18.00;99.90;;;;;;6326537;28;20233;-61
2023/06/08 02:38:14;;;;;;;5.97;5.20;;;17.90;99.90;;;;;;6326449;28;20935;-61
2023/06/08 02:41:19;;;;;;;5.33;4.93;;;17.90;99.90;;;;;;6326481;28;20468;-62
2023/06/08 02:44:22;;;;;;;5.20;4.90;;;17.90;99.90;;;;;;6326062;28;20473;-62
2023/06/08 02:47:25;;;;;;;6.70;4.80;;;17.80;99.90;;;;;;6326210;28;20468;-62
2023/06/08 02:50:28;;;;;;;6.20;4.40;;;17.80;99.90;;;;;;6325965;28;20559;-62
2023/06/08 02:53:31;;;;;;;5.73;5.20;;;17.80;99.90;;;;;;6325699;28;20460;-62
2023/06/08 02:56:36;;;;;;;5.50;5.00;;;17.80;99.90;;;;;;6326233;28;20503;-62
2023/06/08 02:59:40;;;;;;;5.60;5.10;;;17.90;99.90;;;;;;6325719;28;20976;-62
2023/06/08 03:02:43;;;;;;;5.07;4.67;;;17.90;99.90;;;;;;6325936;28;20483;-62
2023/06/08 03:05:46;;;;;;;6.00;5.40;;;17.90;99.90;;;;;;6325538;28;20793;-62
2023/06/08 03:08:53;;;;;;;5.27;4.87;;;17.80;99.90;;;;;;6325614;28;20463;-62
2023/06/08 03:11:59;;;;;;;4.87;4.57;;;17.70;99.90;;;;;;6325780;28;20506;-62
2023/06/08 03:15:03;;;;;;;4.57;4.27;;;17.80;99.90;;;;;;6325911;28;20245;-62
2023/06/08 03:18:06;;;;;;;5.43;4.87;;;17.70;99.90;;;;;;6325605;28;20483;-62
2023/06/08 03:21:12;;;;;;;5.60;4.80;;;17.70;99.90;;;;;;6325447;28;20479;-62
2023/06/08 03:24:15;;;;;;;4.90;4.53;;;17.60;99.90;;;;;;6325157;28;20514;-62
2023/06/08 03:27:20;;;;;;;6.27;5.63;;;17.60;99.90;;;;;;6325202;28;20890;-62
2023/06/08 03:30:23;;;;;;;6.30;5.80;;;17.60;99.90;;;;;;6315298;28;20488;-62
2023/06/08 03:33:27;;;;;;;4.80;4.50;;;17.60;99.90;;;;;;6324946;28;20472;-62
2023/06/08 03:36:33;;;;;;;6.20;4.77;;;17.60;99.90;;;;;;6325180;28;21043;-62
2023/06/08 03:39:37;;;;;;;5.10;4.70;;;17.60;99.90;;;;;;6324976;28;20472;-62
2023/06/08 03:42:41;;;;;;;4.57;4.17;;;17.60;99.90;;;;;;6324996;28;20911;-62
2023/06/08 03:45:44;;;;;;;5.10;4.70;;;17.70;99.90;;;;;;6324662;28;20491;-62
2023/06/08 03:48:48;;;;;;;4.70;4.40;;;17.70;99.90;;;;;;6325002;28;20524;-62
2023/06/08 03:51:52;;;;;;;5.70;4.67;;;17.80;99.90;;;;;;6324611;28;20571;-62
2023/06/08 03:54:55;;;;;;;4.93;4.43;;;17.90;99.90;;;;;;6324826;28;20475;-62
2023/06/08 03:58:00;;;;;;;4.50;4.10;;;18.00;99.90;;;;;;6324343;28;20556;-61
2023/06/08 04:01:03;;;;;;;4.73;4.40;;;18.00;99.90;;;;;;6314250;28;20308;-62
2023/06/08 04:04:07;;;;;;;4.67;4.37;;;18.10;99.90;;;;;;6319187;28;20222;-61
2023/06/08 04:07:10;;;;;;;5.37;4.87;;;18.10;99.90;;;;;;6323891;28;20471;-61
2023/06/08 04:10:13;;;;;;;7.47;4.87;;;18.10;99.90;;;;;;6344660;28;20221;-61
2023/06/08 04:13:18;;;;;;;5.27;4.80;;;18.20;99.90;;;;;;6319586;27;20500;-60
2023/06/08 04:16:21;;;;;;;4.30;3.90;;;18.30;99.90;;;;;;6349863;27;20262;-60
2023/06/08 04:19:25;;;;;;;6.93;4.13;;;18.30;99.90;;;;;;6350168;28;20225;-61
2023/06/08 04:22:28;;;;;;;3.70;3.40;;;18.40;99.90;;;;;;6350753;28;20221;-61
2023/06/08 04:25:32;;;;;;;5.00;4.60;;;18.40;99.90;;;;;;6349935;28;20228;-61
2023/06/08 04:28:36;;;;;;;10.47;4.83;;;18.40;99.90;;;;;;6347346;28;20206;-61
2023/06/08 04:31:40;;;;;;;4.73;4.33;;;18.50;99.90;;;;;;6347479;28;20321;-61
2023/06/08 04:34:43;;;;;;;4.50;4.20;;;18.50;99.90;;;;;;6349843;28;20559;-65
2023/06/08 04:37:47;;;;;;;4.20;3.90;;;18.60;99.90;;;;;;6349247;28;20225;-61
2023/06/08 04:40:52;;;;;;;4.70;4.40;;;18.70;99.90;;;;;;6348949;28;20581;-61
2023/06/08 04:44:01;;;;;;;5.10;4.60;;;18.80;99.90;;;;;;6349524;28;20233;-61
2023/06/08 04:47:07;;;;;;;4.63;4.27;;;18.80;99.90;;;;;;6349228;28;20232;-60
2023/06/08 04:50:11;;;;;;;4.90;4.50;;;18.90;99.90;;;;;;6348974;28;20237;-60
2023/06/08 04:53:14;;;;;;;4.70;4.30;;;18.90;99.90;;;;;;6348659;28;20240;-60
2023/06/08 04:56:19;;;;;;;4.37;4.07;;;19.00;99.90;;;;;;6348913;28;20539;-60
2023/06/08 04:59:24;;;;;;;5.10;4.70;;;19.10;99.90;;;;;;6348840;28;20244;-61
2023/06/08 05:02:27;;;;;;;5.50;5.00;;;19.30;99.90;;;;;;6349191;28;20237;-61
2023/06/08 05:05:30;;;;;;;5.17;4.67;;;19.30;99.90;;;;;;6348490;28;20244;-61
2023/06/08 05:08:33;;;;;;;6.60;4.47;;;19.50;99.90;;;;;;6348873;28;20240;-61
2023/06/08 05:11:37;;;;;;;5.67;5.17;;;19.60;99.90;;;;;;6348172;28;20898;-61
2023/06/08 05:14:41;;;;;;;5.73;4.83;;;19.80;99.90;;;;;;6353302;28;20557;-61
2023/06/08 05:17:45;;;;;;;5.83;5.27;;;19.90;99.90;;;;;;6352741;28;20286;-61
2023/06/08 05:20:48;;;;;;;5.20;4.80;;;20.00;99.90;;;;;;6353626;28;20226;-61
2023/06/08 05:23:51;;;;;;;4.73;4.33;;;20.10;99.90;;;;;;6352892;28;20221;-61
2023/06/08 05:26:54;;;;;;;5.50;5.00;;;20.20;99.90;;;;;;6353415;28;20233;-61
2023/06/08 05:29:59;;;;;;;4.93;4.53;;;20.30;99.90;;;;;;6353295;27;20237;-61
2023/06/08 05:33:04;;;;;;;12.03;5.50;;;20.40;99.90;;;;;;6353246;28;20529;-61
2023/06/08 05:36:07;;;;;;;7.63;4.97;;;20.50;99.90;;;;;;6344215;28;20309;-61
2023/06/08 05:39:10;;;;;;;5.70;5.10;;;20.50;99.90;;;;;;6352775;28;20241;-61
2023/06/08 05:42:14;;;;;;;5.40;4.90;;;20.60;99.90;;;;;;6352681;28;20695;-61
2023/06/08 05:45:18;;;;;;;4.93;4.53;;;20.80;99.90;;;;;;6352130;28;20233;-61
2023/06/08 05:48:21;;;;;;;5.37;4.87;;;20.90;99.90;;;;;;6352651;28;20670;-61
2023/06/08 05:51:25;;;;;;;5.83;5.33;;;20.90;99.90;;;;;;6352345;28;20245;-61
2023/06/08 05:54:28;;;;;;;5.00;4.60;;;21.10;99.90;;;;;;6352393;28;20235;-61
2023/06/08 05:57:31;;;;;;;5.70;5.13;;;21.10;99.90;;;;;;6352264;28;20222;-61
2023/06/08 06:00:36;;;;;;;5.10;4.70;;;21.20;99.90;;;;;;6351983;28;20229;-60
2023/06/08 06:03:40;;;;;;;5.17;4.70;;;21.30;99.90;;;;;;6352315;27;20241;-65
2023/06/08 06:06:43;;;;;;;4.80;4.40;;;21.50;99.90;;;;;;6352233;28;20233;-65
2023/06/08 06:09:46;;;;;;;5.20;4.80;;;21.60;99.90;;;;;;6352501;28;20233;-64
2023/06/08 06:12:50;;;;;;;5.10;4.70;;;21.80;99.90;;;;;;6353588;28;20240;-64
2023/06/08 06:15:55;;;;;;;6.10;4.90;;;22.00;99.90;;;;;;6353644;28;20286;-64
2023/06/08 06:18:58;;;;;;;4.90;4.50;;;22.30;99.90;;;;;;6352551;27;20797;-64
2023/06/08 06:22:01;;;;;;;5.00;4.70;;;22.70;99.90;;;;;;6352305;28;20618;-64
2023/06/08 06:25:05;;;;;;;5.37;4.87;;;23.20;99.90;;;;;;6345516;28;20236;-64
2023/06/08 06:28:08;;;;;;;5.43;4.93;;;23.90;99.90;;;;;;6349796;28;20228;-65
2023/06/08 06:31:13;;;;;;;4.87;4.57;;;24.40;99.90;;;;;;6351808;28;20667;-65
2023/06/08 06:34:16;;;;;;;4.93;4.53;;;25.00;99.90;;;;;;6351976;28;20512;-63
2023/06/08 06:37:19;;;;;;;4.40;4.10;;;25.30;99.90;;;;;;6352005;28;20329;-63
2023/06/08 06:40:23;;;;;;;6.10;5.60;;;25.70;99.70;;;;;;6352350;28;20552;-65
2023/06/08 06:43:26;;;;;;;4.60;4.30;;;25.90;98.90;;;;;;6352082;28;20197;-66
2023/06/08 06:46:31;;;;;;;5.60;5.10;;;25.90;98.40;;;;;;6352239;27;20225;-66
2023/06/08 06:49:34;;;;;;;4.83;4.43;;;25.70;98.30;;;;;;6351529;28;20637;-65
2023/06/08 06:52:37;;;;;;;5.23;4.93;;;25.50;98.40;;;;;;6351435;27;20512;-66
2023/06/08 06:55:41;;;;;;;5.10;4.80;;;25.60;98.80;;;;;;6351027;28;20330;-66
2023/06/08 06:58:44;;;;;;;5.00;4.67;;;25.80;98.40;;;;;;6350733;28;20652;-65
2023/06/08 07:01:50;;;;;;;5.70;5.30;;;25.90;98.00;;;;;;6351207;28;20240;-64
2023/06/08 07:04:54;;;;;;;5.90;5.40;;;26.00;98.00;;;;;;6348603;28;20322;-66
2023/06/08 07:07:58;;;;;;;5.63;5.13;;;26.20;97.90;;;;;;6351393;27;20224;-64
2023/06/08 07:11:01;;;;;;;6.33;5.40;;;27.20;96.60;;;;;;6351138;28;20229;-65
2023/06/08 07:14:05;;;;;;;5.90;5.40;;;28.00;95.20;;;;;;6351011;28;20217;-64
2023/06/08 07:17:11;;;;;;;5.60;5.20;;;28.10;93.70;;;;;;6350874;28;20661;-64
2023/06/08 07:20:15;;;;;;;6.10;5.60;;;27.90;94.00;;;;;;6350697;28;20587;-65
2023/06/08 07:23:18;;;;;;;6.40;5.90;;;27.50;93.80;;;;;;6350429;28;20231;-64
2023/06/08 07:26:43;;;;;;;5.17;4.80;;;27.10;93.90;;;;;;6350375;28;20225;-65
2023/06/08 07:29:47;;;;;;;6.07;5.67;;;26.50;95.30;;;;;;6350728;28;20235;-64
2023/06/08 07:32:52;;;;;;;6.60;6.00;;;26.40;95.40;;;;;;6350713;28;20661;-65
2023/06/08 07:35:55;;;;;;;5.60;5.20;;;26.40;95.60;;;;;;6350340;28;20228;-65
2023/06/08 07:38:58;;;;;;;5.27;4.87;;;26.50;95.50;;;;;;6350546;28;20220;-64
2023/06/08 07:42:02;;;;;;;7.67;6.87;;;26.60;95.40;;;;;;6350109;28;20221;-65
2023/06/08 07:45:06;;;;;;;6.57;6.07;;;26.90;95.20;;;;;;6350012;28;20233;-65
2023/06/08 07:48:10;;;;;;;7.20;6.10;;;26.80;94.70;;;;;;6350255;28;20270;-65
2023/06/08 07:51:14;;;;;;;6.43;6.03;;;26.70;95.00;;;;;;6350120;28;20738;-65
2023/06/08 07:54:19;;;;;;;6.50;6.10;;;26.50;95.10;;;;;;6350478;28;20225;-65
2023/06/08 07:57:22;;;;;;;7.00;6.50;;;26.50;95.50;;;;;;6350085;27;20228;-65
2023/06/08 08:00:26;;;;;;;7.03;6.53;;;26.70;95.00;;;;;;6350219;28;20239;-65
2023/06/08 08:03:35;;;;;;;7.07;6.43;;;26.40;95.20;;;;;;6349585;28;20225;-65
2023/06/08 08:06:39;;;;;;;7.10;6.50;;;26.20;95.60;;;;;;6349645;28;20351;-65
2023/06/08 08:09:42;;;;;;;7.10;6.60;;;26.10;95.90;;;;;;6349737;28;20239;-65
2023/06/08 08:12:45;;;;;;;7.70;7.10;;;26.00;95.70;;;;;;6349730;28;20228;-65
2023/06/08 08:15:48;;;;;;;6.63;6.13;;;26.00;95.30;;;;;;6349754;28;20217;-65
2023/06/08 08:18:53;;;;;;;7.20;6.70;;;26.10;95.70;;;;;;6349783;28;20565;-65
2023/06/08 08:21:56;;;;;;;8.07;7.47;;;26.20;95.40;;;;;;6349371;28;20228;-64
2023/06/08 08:24:59;;;;;;;8.13;7.43;;;25.80;96.00;;;;;;6349739;28;20700;-64
2023/06/08 08:28:02;;;;;;;7.23;6.70;;;25.60;96.50;;;;;;6349161;28;20229;-64
2023/06/08 08:31:06;;;;;;;8.40;7.80;;;25.70;96.60;;;;;;6349713;28;20373;-64
2023/06/08 08:34:11;;;;;;;7.90;7.27;;;25.90;96.40;;;;;;6349472;28;20248;-65
2023/06/08 08:37:15;;;;;;;7.07;6.40;;;26.10;95.90;;;;;;6349553;28;20667;-65
2023/06/08 08:40:18;;;;;;;7.37;6.77;;;26.40;95.70;;;;;;6349347;28;20233;-65
2023/06/08 08:43:27;;;;;;;7.43;6.93;;;27.00;94.70;;;;;;6349094;28;20649;-65
2023/06/08 08:46:33;;;;;;;8.20;7.50;;;27.50;93.50;;;;;;6344532;28;20209;-65
2023/06/08 08:49:42;;;;;;;6.70;6.20;;;27.80;92.20;;;;;;6345098;28;20281;-65
2023/06/08 08:52:46;;;;;;;6.93;6.43;;;27.90;92.10;;;;;;6329450;28;20309;-64
2023/06/08 08:55:52;;;;;;;6.80;6.33;;;28.40;91.50;;;;;;6329376;28;20303;-65
2023/06/08 08:58:56;;;;;;;7.10;6.60;;;28.90;90.30;;;;;;6329316;28;20225;-65
2023/06/08 09:01:59;;;;;;;9.00;8.23;;;28.90;90.00;;;;;;6329235;28;20312;-65
2023/06/08 09:05:05;;;;;;;7.63;7.13;;;28.20;90.60;;;;;;6328892;28;20289;-65
2023/06/08 09:08:09;;;;;;;8.30;7.70;;;28.40;90.90;;;;;;6329867;28;20225;-66
2023/06/08 09:11:12;;;;;;;6.83;6.33;;;28.80;90.50;;;;;;6329472;28;20298;-66
2023/06/08 09:14:15;;;;;;;6.80;6.30;;;28.80;89.70;;;;;;6329486;28;20258;-66
2023/06/08 09:17:37;;;;;;;6.33;5.83;;;28.70;89.60;;;;;;6329391;28;20251;-65
2023/06/08 09:20:42;;;;;;;6.60;6.10;;;28.50;89.50;;;;;;6328482;28;20349;-66
2023/06/08 09:23:45;;;;;;;7.23;6.40;;;28.30;88.70;;;;;;6328941;28;20247;-64
2023/06/08 09:26:51;;;;;;;6.40;5.87;;;28.20;89.70;;;;;;6323205;28;20248;-64
2023/06/08 09:29:57;;;;;;;6.10;5.70;;;28.30;90.00;;;;;;6328702;28;20233;-63
2023/06/08 09:33:01;;;;;;;6.40;6.00;;;28.10;90.60;;;;;;6333654;28;20530;-64
2023/06/08 09:36:08;;;;;;;4.77;4.47;;;27.60;90.50;;;;;;6329151;28;20218;-64
2023/06/08 09:39:11;;;;;;;5.30;4.90;;;27.10;87.10;;;;;;6326189;28;20245;-65
2023/06/08 09:42:14;;;;;;;4.90;4.60;;;27.00;85.80;;;;;;6327605;28;20277;-65
2023/06/08 09:45:18;;;;;;;5.10;4.70;;;27.10;88.50;;;;;;6328704;28;20236;-67
2023/06/08 09:48:21;;;;;;;5.77;5.33;;;27.30;90.10;;;;;;6331734;28;20229;-67
2023/06/08 09:51:26;;;;;;;5.73;5.33;;;27.40;90.20;;;;;;6330824;28;20564;-65
2023/06/08 09:54:30;;;;;;;6.30;5.87;;;27.20;90.80;;;;;;6327542;28;20214;-65
2023/06/08 09:57:35;;;;;;;6.70;6.20;;;26.90;91.60;;;;;;6324688;28;20356;-65
2023/06/08 10:00:40;;;;;;;6.53;6.13;;;25.90;91.60;;;;;;6325845;28;20229;-65
2023/06/08 10:03:49;;;;;;;6.40;6.00;;;25.90;92.10;;;;;;6326913;28;20334;-65
2023/06/08 10:06:58;;;;;;;6.50;6.03;;;25.80;91.70;;;;;;6324682;28;20229;-65
2023/06/08 10:10:06;;;;;;;5.77;5.37;;;25.70;91.60;;;;;;6326952;28;20234;-65
2023/06/08 10:13:11;;;;;;;5.90;5.50;;;25.80;90.50;;;;;;6327315;28;20226;-65
2023/06/08 10:16:14;;;;;;;5.90;5.50;;;26.10;90.60;;;;;;6327207;28;20248;-64
2023/06/08 10:19:19;;;;;;;5.77;5.27;;;26.40;89.30;;;;;;6326500;28;20234;-65
2023/06/08 10:22:25;;;;;;;4.83;4.13;;;26.50;88.00;;;;;;6326140;28;20221;-65
2023/06/08 10:25:30;;;;;;;5.47;5.07;;;26.60;86.10;;;;;;6327092;28;20201;-65
2023/06/08 10:28:33;;;;;;;5.20;4.80;;;26.80;86.50;;;;;;6326019;28;20198;-66
2023/06/08 10:31:40;;;;;;;6.10;5.47;;;27.00;86.70;;;;;;6324844;28;20227;-65
2023/06/08 10:34:43;;;;;;;5.00;4.70;;;26.80;86.70;;;;;;6327054;28;20194;-65
2023/06/08 10:37:48;;;;;;;5.90;5.40;;;26.90;85.50;;;;;;6326861;28;20240;-65
2023/06/08 10:40:51;;;;;;;5.20;4.80;;;27.20;85.70;;;;;;6326512;28;20235;-65
2023/06/08 10:43:59;;;;;;;5.00;4.70;;;27.20;83.70;;;;;;6326195;28;20241;-61
2023/06/08 10:47:05;;;;;;;6.03;5.43;;;27.20;83.80;;;;;;6326058;28;20304;-61
2023/06/08 10:50:11;;;;;;;5.77;5.20;;;27.20;84.30;;;;;;6326268;28;20311;-61
2023/06/08 10:53:17;;;;;;;5.00;4.67;;;27.20;84.50;;;;;;6318722;28;20574;-62
2023/06/08 10:56:25;;;;;;;5.97;5.47;;;27.30;81.50;;;;;;6300620;28;20241;-65
2023/06/08 10:59:35;;;;;;;5.27;4.87;;;27.00;83.40;;;;;;6319191;28;20308;-60
2023/06/08 11:02:39;;;;;;;4.50;4.20;;;27.20;81.90;;;;;;6316142;28;20662;-64
2023/06/08 11:05:44;;;;;;;3.87;3.57;;;27.50;78.80;;;;;;6302563;28;20705;-63
2023/06/08 11:08:49;;;;;;;5.40;5.00;;;27.60;76.50;;;;;;6312596;28;20677;-61
2023/06/08 11:11:52;;;;;;;5.60;5.10;;;27.50;80.00;;;;;;6312909;28;20603;-61
2023/06/08 11:14:55;;;;;;;6.10;5.47;;;27.40;81.70;;;;;;6304008;28;20525;-64
2023/06/08 11:17:59;;;;;;;5.00;4.60;;;27.60;81.90;;;;;;6326184;28;20228;-65
2023/06/08 11:21:03;;;;;;;5.60;5.20;;;27.70;81.60;;;;;;6318282;28;20228;-60
2023/06/08 11:24:08;;;;;;;4.90;4.57;;;27.50;80.90;;;;;;6324052;28;20222;-62
2023/06/08 11:27:17;;;;;;;5.00;4.70;;;27.50;81.80;;;;;;6317689;28;20523;-66
2023/06/08 11:30:21;;;;;;;5.53;5.13;;;27.70;80.20;;;;;;6325162;28;20240;-62
2023/06/08 11:33:25;;;;;;;5.43;5.03;;;28.00;79.60;;;;;;6325050;28;20237;-62
2023/06/08 11:36:28;;;;;;;4.43;4.13;;;27.60;79.50;;;;;;6325547;28;20374;-62
2023/06/08 11:39:33;;;;;;;5.10;4.70;;;27.50;79.40;;;;;;6324965;28;20240;-62
2023/06/08 11:42:37;;;;;;;4.57;4.27;;;27.60;78.30;;;;;;6324655;28;20225;-62
2023/06/08 11:45:40;;;;;;;6.10;5.60;;;27.60;78.80;;;;;;6325192;28;20244;-61
2023/06/08 11:48:43;;;;;;;5.07;4.67;;;27.50;78.20;;;;;;6325096;28;20221;-63
2023/06/08 11:51:48;;;;;;;4.13;3.83;;;27.60;78.60;;;;;;6324986;28;20562;-62
2023/06/08 11:54:54;;;;;;;6.17;5.57;;;27.90;77.90;;;;;;6325110;28;20229;-62
2023/06/08 11:57:59;;;;;;;5.73;5.23;;;27.50;78.60;;;;;;6324616;28;20232;-62
2023/06/08 12:01:07;;;;;;;4.80;4.50;;;27.70;79.10;;;;;;6320089;28;20233;-61
2023/06/08 12:04:14;;;;;;;4.80;4.50;;;27.70;77.10;;;;;;6325146;28;20237;-62
2023/06/08 12:07:17;;;;;;;5.07;4.67;;;28.00;76.30;;;;;;6325872;28;20310;-62
2023/06/08 12:10:22;;;;;;;4.93;4.63;;;28.10;76.70;;;;;;6325452;28;20236;-62
2023/06/08 12:13:25;;;;;;;5.40;5.00;;;28.00;77.20;;;;;;6324894;28;20236;-62
2023/06/08 12:16:42;;;;;;;5.50;5.10;;;27.70;77.30;;;;;;6324603;28;20650;-62
2023/06/08 12:19:45;;;;;;;5.93;5.13;;;27.60;79.90;;;;;;6324999;28;20241;-62
2023/06/08 12:22:48;;;;;;;6.20;5.80;;;27.80;80.10;;;;;;6323938;28;20604;-62
2023/06/08 12:25:53;;;;;;;5.57;5.07;;;27.80;77.70;;;;;;6325710;28;20558;-62
2023/06/08 12:28:56;;;;;;;5.87;5.20;;;28.00;76.90;;;;;;6324115;28;20221;-62
2023/06/08 12:31:59;;;;;;;5.93;5.53;;;28.00;77.70;;;;;;6324291;28;20661;-63
2023/06/08 12:35:03;;;;;;;5.67;5.03;;;27.90;76.50;;;;;;6324713;28;20236;-62
2023/06/08 12:38:07;;;;;;;5.80;5.40;;;27.80;77.20;;;;;;6324631;28;20221;-63
2023/06/08 12:41:11;;;;;;;6.10;5.60;;;27.40;78.50;;;;;;6324182;28;20678;-62
2023/06/08 12:44:14;;;;;;;6.00;5.60;;;27.00;78.50;;;;;;6324428;28;20237;-62
2023/06/08 12:47:18;;;;;;;5.50;5.10;;;26.90;80.60;;;;;;6324264;28;20236;-62
2023/06/08 12:50:22;;;;;;;6.17;5.77;;;26.90;81.40;;;;;;6326043;28;20244;-62
2023/06/08 12:53:25;;;;;;;9.03;8.33;;;26.90;81.30;;;;;;6324942;28;20225;-62
2023/06/08 12:56:30;;;;;;;5.67;5.27;;;27.00;80.10;;;;;;6324032;28;20229;-62
2023/06/08 12:59:34;;;;;;;6.23;5.73;;;27.20;80.70;;;;;;6324059;28;20239;-62
2023/06/08 13:02:37;;;;;;;5.53;5.13;;;27.30;85.80;;;;;;6324386;28;20247;-62
2023/06/08 13:05:40;;;;;;;6.03;5.53;;;27.10;87.40;;;;;;6314759;28;20576;-62
2023/06/08 13:08:43;;;;;;;5.73;5.20;;;26.80;89.40;;;;;;6323797;28;20225;-62
2023/06/08 13:11:48;;;;;;;6.73;6.13;;;26.60;88.90;;;;;;6323390;28;20230;-62
2023/06/08 13:14:51;;;;;;;6.03;5.60;;;26.40;90.00;;;;;;6323825;28;20237;-62
2023/06/08 13:17:54;;;;;;;6.70;6.20;;;26.30;90.50;;;;;;6324103;28;20243;-62
2023/06/08 13:20:57;;;;;;;6.27;5.87;;;26.20;90.50;;;;;;6323680;28;20233;-62
2023/06/08 13:24:02;;;;;;;4.37;4.07;;;26.10;90.10;;;;;;6323928;28;20221;-62
2023/06/08 13:27:09;;;;;;;4.53;4.13;;;25.70;84.00;;;;;;6323703;28;20975;-62
2023/06/08 13:30:13;;;;;;;4.53;4.13;;;24.90;85.80;;;;;;6323876;28;20525;-62
2023/06/08 13:33:16;;;;;;;6.53;3.67;;;24.40;87.40;;;;;;6324733;28;20254;-62
2023/06/08 13:36:19;;;;;;;6.23;4.30;;;24.10;89.60;;;;;;6328113;28;20234;-62
2023/06/08 13:39:22;;;;;;;4.43;4.03;;;24.20;91.60;;;;;;6327915;28;20230;-62
2023/06/08 13:42:27;;;;;;;4.53;4.20;;;24.40;93.30;;;;;;6327909;28;20233;-63
2023/06/08 13:45:30;;;;;;;5.07;4.47;;;24.40;93.90;;;;;;6327847;28;20234;-62
2023/06/08 13:48:33;;;;;;;5.37;4.77;;;24.10;94.90;;;;;;6328029;28;20543;-62
2023/06/08 13:51:37;;;;;;;4.87;4.47;;;24.10;95.90;;;;;;6327568;28;20313;-62
2023/06/08 13:54:40;;;;;;;5.87;5.27;;;23.80;95.80;;;;;;6327634;28;20225;-65
2023/06/08 13:57:45;;;;;;;5.20;4.70;;;23.20;96.80;;;;;;6327774;28;20230;-65
2023/06/08 14:00:48;;;;;;;4.20;3.90;;;22.80;96.30;;;;;;6327414;28;20240;-65
2023/06/08 14:03:52;;;;;;;4.60;4.10;;;22.30;97.00;;;;;;6327479;28;20230;-65
2023/06/08 14:06:55;;;;;;;4.87;4.47;;;22.20;98.10;;;;;;6322888;28;20230;-65
2023/06/08 14:09:59;;;;;;;5.30;4.80;;;22.10;98.40;;;;;;6326777;28;20235;-65
2023/06/08 14:13:03;;;;;;;5.00;4.50;;;21.70;97.90;;;;;;6327059;28;20222;-65
2023/06/08 14:16:07;;;;;;;5.10;3.83;;;21.40;98.90;;;;;;6327155;28;20689;-65
2023/06/08 14:19:11;;;;;;;4.40;3.90;;;21.30;99.30;;;;;;6326861;28;20226;-64
2023/06/08 14:22:14;;;;;;;4.70;4.20;;;21.10;99.80;;;;;;6327612;28;20237;-65
2023/06/08 14:25:18;;;;;;;5.60;4.93;;;21.00;99.90;;;;;;6327295;28;20677;-65
2023/06/08 14:28:22;;;;;;;5.57;4.57;;;20.70;99.90;;;;;;6326854;28;20226;-65
2023/06/08 14:31:25;;;;;;;4.80;4.40;;;20.30;99.90;;;;;;6327316;28;20367;-64
2023/06/08 14:34:29;;;;;;;5.87;5.23;;;20.10;99.90;;;;;;6326985;28;20275;-65
2023/06/08 14:37:32;;;;;;;6.03;5.50;;;19.80;99.90;;;;;;6326754;28;20198;-65
2023/06/08 14:40:35;;;;;;;5.03;4.50;;;19.80;99.90;;;;;;6326542;28;20363;-65
2023/06/08 14:43:40;;;;;;;4.80;4.40;;;19.90;99.90;;;;;;6326614;28;20214;-65
2023/06/08 14:46:43;;;;;;;5.50;3.90;;;20.00;99.90;;;;;;6325767;28;20202;-65
2023/06/08 14:49:46;;;;;;;6.90;4.17;;;20.00;99.90;;;;;;6326083;28;20233;-66
2023/06/08 14:52:49;;;;;;;5.10;4.50;;;20.10;99.90;;;;;;6310711;28;20233;-66
2023/06/08 14:55:52;;;;;;;4.97;4.60;;;20.00;99.90;;;;;;6323160;28;20228;-65
2023/06/08 14:58:57;;;;;;;4.97;4.47;;;20.00;99.90;;;;;;6322651;28;20225;-66
2023/06/08 15:02:00;;;;;;;7.40;4.87;;;19.90;99.90;;;;;;6323440;28;20559;-65
2023/06/08 15:05:04;;;;;;;5.00;4.60;;;19.70;99.90;;;;;;6325741;28;20246;-65
2023/06/08 15:08:07;;;;;;;5.50;5.00;;;19.80;99.90;;;;;;6329126;28;20226;-65
2023/06/08 15:11:15;;;;;;;4.87;4.47;;;19.80;99.90;;;;;;6334555;28;20253;-66
2023/06/08 15:14:20;;;;;;;7.50;6.80;;;19.70;99.90;;;;;;6331657;28;20234;-68
2023/06/08 15:17:24;;;;;;;7.13;5.03;;;19.60;99.90;;;;;;6313051;28;20238;-65
2023/06/08 15:20:27;;;;;;;5.47;4.97;;;19.70;99.90;;;;;;6314069;28;20277;-67
2023/06/08 15:23:30;;;;;;;5.73;5.00;;;19.70;99.90;;;;;;6317120;28;20230;-65
2023/06/08 15:26:33;;;;;;;4.73;4.33;;;19.70;99.90;;;;;;6307124;28;20231;-66
2023/06/08 15:29:38;;;;;;;5.50;5.00;;;19.70;99.90;;;;;;6309405;28;20716;-67
2023/06/08 15:32:41;;;;;;;8.37;5.03;;;19.80;99.90;;;;;;6318769;28;20737;-65
2023/06/08 15:35:44;;;;;;;6.33;5.73;;;19.90;99.90;;;;;;6325058;28;20226;-61
2023/06/08 15:38:48;;;;;;;5.93;5.43;;;19.90;99.90;;;;;;6324638;28;20245;-62
2023/06/08 15:41:51;;;;;;;6.43;5.77;;;19.90;99.90;;;;;;6324673;28;20234;-61
2023/06/08 15:44:56;;;;;;;6.17;5.67;;;19.90;99.90;;;;;;6326528;28;20391;-62
2023/06/08 15:47:59;;;;;;;5.60;5.10;;;19.90;99.90;;;;;;6325092;28;20880;-61
2023/06/08 15:51:02;;;;;;;7.20;6.03;;;19.90;99.90;;;;;;6310939;28;20304;-62
2023/06/08 15:54:06;;;;;;;5.77;5.27;;;19.90;99.90;;;;;;6298964;28;20234;-62
2023/06/08 15:57:10;;;;;;;5.80;5.33;;;19.90;99.90;;;;;;6313341;28;20308;-61
2023/06/08 16:00:16;;;;;;;5.20;4.70;;;19.90;99.90;;;;;;6324245;28;20264;-60